Rockwood, Texas
Current Conditions -  °F | °C
As of 6:35 AM on Tuesday 27 Jan 2015 (Local Time) from KBBD Reporting Station
Clear Clear  
Wind Chill: 39°   Ceiling: Unl
Heat Index: 43°   Visibility: 10mi
Dew Point: 36°   Wind: 7mph
Humidity: 76%   Direction: 270°W
Pressure: 30.18"   Gusts: NA
Location:  31.5°N, 99.37°W
Report Text: KBBD 271235Z AUTO 27006KT 10SM CLR 06/02 A3018 RMK
Loading
Personal Weather Stations






























Interactive Weather Map New forecast layout! Learn more

10-Day Weather Forecast

Advertisements
Track Severe Weather on mobile